Time;durP1;ratioP1;P1;durP2;ratioP2;P2;SDS_P1;SDS_P2;PMS_P1;PMS_P2;Temp;Humidity;BMP_temperature;BMP_pressure;BME280_temperature;BME280_humidity;BME280_pressure;Samples;Min_cycle;Max_cycle;Signal;HPM_P1;HPM_P2
2022/09/28 00:00:55;;;;;;;10.77;4.37;;;9.20;99.90;;;;;;5076717;28;20444;-78
2022/09/28 00:03:22;;;;;;;4.40;4.00;;;9.20;99.90;;;;;;5075951;28;20426;-80
2022/09/28 00:05:49;;;;;;;8.40;3.90;;;9.10;99.90;;;;;;5076454;28;20480;-78
2022/09/28 00:08:17;;;;;;;5.57;4.07;;;9.10;99.90;;;;;;5075703;28;20943;-79
2022/09/28 00:10:44;;;;;;;3.80;3.40;;;9.10;99.90;;;;;;5075342;28;20918;-77
2022/09/28 00:13:11;;;;;;;4.03;3.50;;;9.10;99.90;;;;;;5075874;28;20455;-78
2022/09/28 00:15:37;;;;;;;3.60;3.30;;;8.90;99.90;;;;;;5077263;28;20449;-77
2022/09/28 00:18:04;;;;;;;4.83;3.80;;;9.00;99.90;;;;;;5079504;28;20803;-77
2022/09/28 00:20:31;;;;;;;3.83;3.43;;;9.00;99.90;;;;;;5076418;28;20416;-77
2022/09/28 00:22:58;;;;;;;4.03;3.57;;;9.00;99.90;;;;;;5075669;28;20448;-78
2022/09/28 00:25:26;;;;;;;6.30;4.07;;;8.30;99.90;;;;;;5075541;28;20423;-77
2022/09/28 00:27:53;;;;;;;6.33;3.60;;;9.10;99.90;;;;;;5075278;28;20993;-77
2022/09/28 00:30:20;;;;;;;3.70;3.40;;;9.10;99.90;;;;;;5075594;28;20452;-77
2022/09/28 00:32:46;;;;;;;3.40;3.10;;;9.10;99.90;;;;;;5075252;28;20423;-77
2022/09/28 00:35:13;;;;;;;3.90;3.53;;;9.10;99.90;;;;;;5078400;28;20565;-77
2022/09/28 00:37:40;;;;;;;6.63;3.70;;;9.00;99.90;;;;;;5077960;28;20488;-79
2022/09/28 00:40:07;;;;;;;6.90;3.47;;;9.00;99.90;;;;;;5077077;28;20430;-79
2022/09/28 00:42:35;;;;;;;5.90;3.30;;;9.10;99.90;;;;;;5074486;28;20481;-79
2022/09/28 00:45:02;;;;;;;3.63;3.33;;;9.10;99.90;;;;;;5073553;28;20813;-77
2022/09/28 00:47:40;;;;;;;4.30;3.10;;;9.10;99.90;;;;;;5074229;28;21006;-77
2022/09/28 00:50:14;;;;;;;3.70;3.40;;;9.10;99.90;;;;;;5074102;28;20399;-78
2022/09/28 00:52:46;;;;;;;4.17;3.60;;;9.10;99.90;;;;;;5074758;28;20421;-78
2022/09/28 00:55:17;;;;;;;4.50;3.77;;;9.10;99.90;;;;;;5074427;28;20512;-78
2022/09/28 00:57:50;;;;;;;4.30;3.90;;;9.00;99.90;;;;;;5074254;28;20485;-78
2022/09/28 01:00:17;;;;;;;5.27;4.77;;;9.10;99.90;;;;;;5074320;28;20404;-78
2022/09/28 01:02:45;;;;;;;4.17;3.80;;;9.10;99.90;;;;;;5074226;28;20494;-78
2022/09/28 01:05:13;;;;;;;4.90;3.77;;;9.10;99.90;;;;;;5074003;28;20424;-77
2022/09/28 01:07:41;;;;;;;4.40;3.87;;;9.10;99.90;;;;;;5081892;22;20464;-74
2022/09/28 01:10:08;;;;;;;6.00;3.70;;;9.10;99.90;;;;;;5053542;28;20458;-74
2022/09/28 01:12:35;;;;;;;4.40;3.33;;;9.20;99.90;;;;;;5053397;28;20427;-74
2022/09/28 01:15:05;;;;;;;3.40;3.10;;;9.10;99.90;;;;;;5053233;28;20424;-74
2022/09/28 01:17:42;;;;;;;5.50;4.00;;;9.20;99.90;;;;;;5052864;28;20465;-74
2022/09/28 01:20:32;;;;;;;3.90;3.60;;;9.20;99.90;;;;;;5053195;28;20779;-74
2022/09/28 01:23:31;;;;;;;3.77;3.50;;;9.20;99.90;;;;;;5053107;28;20461;-74
2022/09/28 01:26:18;;;;;;;4.33;3.20;;;9.00;99.90;;;;;;5052398;28;20455;-74
2022/09/28 01:28:48;;;;;;;4.63;4.20;;;9.30;99.90;;;;;;5053239;28;20433;-74
2022/09/28 01:31:17;;;;;;;4.57;4.20;;;9.20;99.90;;;;;;5053230;28;20506;-74
2022/09/28 01:33:48;;;;;;;6.93;4.23;;;9.20;99.90;;;;;;5053125;28;20477;-76
2022/09/28 01:36:21;;;;;;;4.03;3.73;;;9.30;99.90;;;;;;5053030;28;20451;-75
2022/09/28 01:38:51;;;;;;;3.77;3.47;;;9.30;99.90;;;;;;5053122;28;20835;-75
2022/09/28 01:41:21;;;;;;;4.97;4.57;;;9.30;99.90;;;;;;5053055;28;20454;-75
2022/09/28 01:43:53;;;;;;;3.50;3.20;;;9.40;99.90;;;;;;5052967;28;20400;-75
2022/09/28 01:46:22;;;;;;;3.50;3.20;;;9.40;99.90;;;;;;5053192;28;20447;-74
2022/09/28 01:48:54;;;;;;;4.90;4.50;;;9.40;99.90;;;;;;5054035;28;20413;-74
2022/09/28 01:51:28;;;;;;;4.00;3.77;;;9.30;99.90;;;;;;5054140;28;20488;-74
2022/09/28 01:53:58;;;;;;;4.57;4.10;;;9.30;99.90;;;;;;5053138;28;20447;-74
2022/09/28 01:56:34;;;;;;;4.97;4.60;;;9.30;99.90;;;;;;5052768;28;20470;-74
2022/09/28 01:59:05;;;;;;;5.73;4.10;;;9.30;99.90;;;;;;5053009;28;20531;-74
2022/09/28 02:01:37;;;;;;;5.67;4.30;;;9.30;99.90;;;;;;5053380;28;20444;-74
2022/09/28 02:04:08;;;;;;;5.87;4.50;;;9.30;99.90;;;;;;5053084;28;20895;-74
2022/09/28 02:06:40;;;;;;;4.03;3.70;;;9.30;99.90;;;;;;5052877;28;20504;-74
2022/09/28 02:09:11;;;;;;;5.37;4.40;;;9.30;99.90;;;;;;5053023;28;20392;-75
2022/09/28 02:11:44;;;;;;;4.20;3.80;;;9.30;99.90;;;;;;5052982;28;20421;-75
2022/09/28 02:14:13;;;;;;;10.47;5.57;;;9.30;99.90;;;;;;5052709;28;20415;-74
2022/09/28 02:16:41;;;;;;;7.63;4.03;;;9.30;99.90;;;;;;5052568;28;20539;-74
2022/09/28 02:19:12;;;;;;;4.93;4.53;;;9.30;99.90;;;;;;5052573;28;20485;-74
2022/09/28 02:21:44;;;;;;;5.80;5.10;;;9.20;99.90;;;;;;5052761;28;20413;-74
2022/09/28 02:24:15;;;;;;;6.57;4.73;;;9.30;99.90;;;;;;5052543;28;20516;-74
2022/09/28 02:26:46;;;;;;;6.23;4.33;;;9.30;99.90;;;;;;5052272;28;20479;-74
2022/09/28 02:29:13;;;;;;;5.43;4.17;;;9.30;99.90;;;;;;5052520;28;20873;-75
2022/09/28 02:31:40;;;;;;;4.70;4.27;;;9.20;99.90;;;;;;5052510;28;20495;-74
2022/09/28 02:34:07;;;;;;;7.60;4.63;;;9.30;99.90;;;;;;5052396;28;20454;-75
2022/09/28 02:36:34;;;;;;;6.53;4.70;;;9.20;99.90;;;;;;5052537;28;20475;-74
2022/09/28 02:39:01;;;;;;;7.60;5.27;;;9.20;99.90;;;;;;5055402;28;20981;-76
2022/09/28 02:41:41;;;;;;;8.13;4.40;;;9.30;99.90;;;;;;5056406;28;20462;-76
2022/09/28 02:44:18;;;;;;;5.90;5.30;;;9.30;99.90;;;;;;5056614;28;20857;-76
2022/09/28 02:46:52;;;;;;;6.40;5.00;;;9.20;99.90;;;;;;5056295;28;20469;-75
2022/09/28 02:49:27;;;;;;;6.10;4.97;;;9.10;99.90;;;;;;5056383;28;20446;-76
2022/09/28 02:52:15;;;;;;;9.20;5.50;;;9.10;99.90;;;;;;5055635;28;20898;-75
2022/09/28 02:55:07;;;;;;;6.80;4.77;;;9.00;99.90;;;;;;5055863;28;20401;-75
2022/09/28 02:57:48;;;;;;;6.40;4.73;;;8.90;99.90;;;;;;5055714;28;20469;-75
2022/09/28 03:00:19;;;;;;;6.33;5.70;;;9.10;99.90;;;;;;5055696;28;20457;-74
2022/09/28 03:02:56;;;;;;;6.43;5.53;;;9.00;99.90;;;;;;5055740;28;20433;-75
2022/09/28 03:05:30;;;;;;;6.60;5.70;;;9.00;99.90;;;;;;5055307;28;20887;-74
2022/09/28 03:08:00;;;;;;;6.53;5.17;;;9.00;99.90;;;;;;5055166;28;20994;-74
2022/09/28 03:10:33;;;;;;;7.97;5.03;;;9.00;99.90;;;;;;5055423;28;20446;-73
2022/09/28 03:13:00;;;;;;;6.60;4.10;;;9.10;99.90;;;;;;5055526;28;20408;-74
2022/09/28 03:15:30;;;;;;;5.73;4.67;;;9.00;99.90;;;;;;5055728;28;20423;-74
2022/09/28 03:17:57;;;;;;;6.43;4.37;;;9.00;99.90;;;;;;5056166;28;20477;-73
2022/09/28 03:20:24;;;;;;;6.27;5.00;;;9.00;99.90;;;;;;5055389;28;20467;-74
2022/09/28 03:22:50;;;;;;;6.60;5.50;;;9.00;99.90;;;;;;5055936;28;20507;-75
2022/09/28 03:25:17;;;;;;;6.50;5.40;;;9.00;99.90;;;;;;5055202;28;20499;-73
2022/09/28 03:27:44;;;;;;;7.20;5.17;;;8.90;99.90;;;;;;5055014;28;20519;-74
2022/09/28 03:30:11;;;;;;;5.70;4.30;;;8.90;99.90;;;;;;5055013;28;20432;-74
2022/09/28 03:32:40;;;;;;;5.50;5.00;;;8.90;99.90;;;;;;5055069;28;20449;-74
2022/09/28 03:35:08;;;;;;;6.00;5.20;;;8.90;99.90;;;;;;5054765;28;20492;-74
2022/09/28 03:37:34;;;;;;;5.67;5.10;;;8.90;99.90;;;;;;5054867;28;20538;-74
2022/09/28 03:40:01;;;;;;;5.83;5.20;;;8.80;99.90;;;;;;5055206;28;20482;-73
2022/09/28 03:42:28;;;;;;;11.70;5.93;;;8.80;99.90;;;;;;5054893;28;20488;-74
2022/09/28 03:44:55;;;;;;;4.83;4.33;;;8.80;99.90;;;;;;5054788;28;20450;-75
2022/09/28 03:47:22;;;;;;;5.67;5.10;;;8.80;99.90;;;;;;5054822;28;20477;-75
2022/09/28 03:49:50;;;;;;;7.30;6.60;;;8.60;99.90;;;;;;5053769;28;20437;-73
2022/09/28 03:52:17;;;;;;;8.13;5.10;;;8.60;99.90;;;;;;5055577;28;20445;-75
2022/09/28 03:54:43;;;;;;;8.47;5.60;;;8.60;99.90;;;;;;5056165;28;20469;-75
2022/09/28 03:57:10;;;;;;;6.00;4.80;;;8.60;99.90;;;;;;5055888;28;20440;-74
2022/09/28 03:59:36;;;;;;;10.90;5.13;;;8.50;99.90;;;;;;5055340;28;20540;-74
2022/09/28 04:02:04;;;;;;;7.40;5.57;;;8.40;99.90;;;;;;5055092;28;20937;-75
2022/09/28 04:04:31;;;;;;;7.93;5.90;;;8.40;99.90;;;;;;5054707;28;20420;-74
2022/09/28 04:06:59;;;;;;;5.77;5.13;;;8.30;99.90;;;;;;5054134;28;20497;-74
2022/09/28 04:09:26;;;;;;;6.25;5.20;;;8.30;99.90;;;;;;5054572;28;20424;-74
2022/09/28 04:11:52;;;;;;;6.73;5.37;;;8.30;99.90;;;;;;5054459;28;20207;-74
2022/09/28 04:14:19;;;;;;;7.67;6.83;;;8.30;99.90;;;;;;5055053;28;20423;-76
2022/09/28 04:16:46;;;;;;;7.00;6.30;;;8.30;99.90;;;;;;5054537;28;20452;-74
2022/09/28 04:19:14;;;;;;;10.83;5.60;;;8.40;99.90;;;;;;5055135;28;20485;-74
2022/09/28 04:21:40;;;;;;;7.30;5.10;;;8.40;99.90;;;;;;5054682;28;20427;-75
2022/09/28 04:24:09;;;;;;;6.60;5.13;;;8.40;99.90;;;;;;5054659;28;20206;-74
2022/09/28 04:26:35;;;;;;;6.75;5.40;;;8.50;99.90;;;;;;5054344;28;20454;-74
2022/09/28 04:29:16;;;;;;;7.40;6.30;;;8.70;99.90;;;;;;5054069;28;20217;-75
2022/09/28 04:31:45;;;;;;;4.90;4.40;;;8.50;99.90;;;;;;5054045;28;20850;-75
2022/09/28 04:34:13;;;;;;;6.60;5.37;;;8.60;99.90;;;;;;5053615;28;20424;-74
2022/09/28 04:36:40;;;;;;;8.93;6.20;;;8.60;99.90;;;;;;5053711;28;20447;-74
2022/09/28 04:39:08;;;;;;;8.20;6.10;;;8.60;99.90;;;;;;5053802;28;20871;-73
2022/09/28 04:41:35;;;;;;;9.80;5.60;;;8.70;99.90;;;;;;5053459;28;20428;-74
2022/09/28 04:44:02;;;;;;;9.87;6.00;;;8.70;99.90;;;;;;5054140;28;20843;-75
2022/09/28 04:46:29;;;;;;;7.80;5.60;;;8.70;99.90;;;;;;5053976;28;20470;-74
2022/09/28 04:48:55;;;;;;;9.30;5.90;;;8.70;99.90;;;;;;5053851;28;20423;-74
2022/09/28 04:51:22;;;;;;;7.00;5.73;;;8.70;99.90;;;;;;5053607;28;20432;-74
2022/09/28 04:53:49;;;;;;;8.10;5.77;;;8.70;99.90;;;;;;5053893;28;20453;-74
2022/09/28 04:56:18;;;;;;;6.70;5.67;;;8.60;99.90;;;;;;5053319;28;20493;-74
2022/09/28 04:58:45;;;;;;;6.97;6.10;;;8.70;99.90;;;;;;5053419;28;20817;-74
2022/09/28 05:01:13;;;;;;;9.93;6.30;;;8.70;99.90;;;;;;5053457;28;20424;-74
2022/09/28 05:03:41;;;;;;;7.03;5.77;;;8.70;99.90;;;;;;5053728;28;20428;-74
2022/09/28 05:06:08;;;;;;;6.40;5.80;;;8.70;99.90;;;;;;5054341;28;20825;-74
2022/09/28 05:08:35;;;;;;;6.13;5.37;;;8.60;99.90;;;;;;5053763;28;20405;-74
2022/09/28 05:11:04;;;;;;;9.80;5.47;;;8.90;99.90;;;;;;5053386;28;20430;-75
2022/09/28 05:13:40;;;;;;;8.05;7.10;;;9.00;99.90;;;;;;5052363;28;20435;-75
2022/09/28 05:16:08;;;;;;;8.30;6.27;;;8.70;99.90;;;;;;5053113;28;20190;-74
2022/09/28 05:18:34;;;;;;;7.40;6.13;;;8.70;99.90;;;;;;5053094;28;20487;-74
2022/09/28 05:21:01;;;;;;;6.13;5.27;;;8.70;99.90;;;;;;5053397;28;20498;-74
2022/09/28 05:23:28;;;;;;;8.20;5.83;;;8.80;99.90;;;;;;5053456;28;20788;-74
2022/09/28 05:25:54;;;;;;;7.67;5.67;;;8.70;99.90;;;;;;5053071;28;20449;-74
2022/09/28 05:28:25;;;;;;;7.87;5.20;;;8.80;99.90;;;;;;5053398;28;20449;-74
2022/09/28 05:30:58;;;;;;;7.20;5.70;;;8.80;99.90;;;;;;5053565;28;20416;-74
2022/09/28 05:33:25;;;;;;;8.70;5.70;;;8.90;99.90;;;;;;5053187;28;20483;-75
2022/09/28 05:35:52;;;;;;;7.47;5.60;;;9.00;99.90;;;;;;5052860;28;20446;-73
2022/09/28 05:38:18;;;;;;;9.97;6.17;;;9.00;99.90;;;;;;5052550;28;20948;-73
2022/09/28 05:40:45;;;;;;;7.03;5.40;;;9.00;99.90;;;;;;5052913;28;20431;-73
2022/09/28 05:43:12;;;;;;;6.77;6.07;;;8.90;99.90;;;;;;5052931;28;20460;-73
2022/09/28 05:45:38;;;;;;;6.83;5.17;;;8.90;99.90;;;;;;5052903;28;20769;-74
2022/09/28 05:48:07;;;;;;;7.27;6.17;;;9.00;99.90;;;;;;5052901;28;20814;-73
2022/09/28 05:50:33;;;;;;;7.80;6.27;;;9.00;99.90;;;;;;5052828;28;20449;-74
2022/09/28 05:53:02;;;;;;;9.10;5.40;;;9.10;99.90;;;;;;5052528;28;20458;-74
2022/09/28 05:55:28;;;;;;;6.90;5.57;;;9.10;99.90;;;;;;5053195;28;20936;-73
2022/09/28 05:57:59;;;;;;;10.20;7.13;;;9.10;99.90;;;;;;5053152;28;20534;-73
2022/09/28 06:00:26;;;;;;;10.83;7.23;;;9.00;99.90;;;;;;5053049;28;20520;-73
2022/09/28 06:02:57;;;;;;;6.90;5.70;;;9.20;99.90;;;;;;5052993;28;20460;-74
2022/09/28 06:05:26;;;;;;;7.70;6.93;;;9.10;99.90;;;;;;5053252;28;20435;-74
2022/09/28 06:07:54;;;;;;;6.10;5.50;;;9.10;99.90;;;;;;5052522;28;20452;-74
2022/09/28 06:10:22;;;;;;;6.20;5.60;;;9.20;99.90;;;;;;5052753;28;20466;-74
2022/09/28 06:12:52;;;;;;;6.73;5.10;;;9.00;99.90;;;;;;5054063;28;20423;-74
2022/09/28 06:15:19;;;;;;;7.77;6.07;;;9.10;99.90;;;;;;5056740;28;20405;-74
2022/09/28 06:17:45;;;;;;;9.97;6.47;;;9.10;99.90;;;;;;5056610;28;20461;-73
2022/09/28 06:20:12;;;;;;;9.47;7.03;;;9.10;99.90;;;;;;5056521;28;20452;-74
2022/09/28 06:22:40;;;;;;;7.63;6.40;;;9.50;99.90;;;;;;5056857;28;20442;-73
2022/09/28 06:25:08;;;;;;;9.73;6.70;;;9.20;99.90;;;;;;5055559;28;20440;-73
2022/09/28 06:27:35;;;;;;;6.33;5.63;;;9.10;99.90;;;;;;5056446;28;20223;-74
2022/09/28 06:30:02;;;;;;;7.60;6.27;;;9.10;99.90;;;;;;5056611;28;20523;-75
2022/09/28 06:32:29;;;;;;;7.53;5.70;;;9.10;99.90;;;;;;5057566;28;20425;-74
2022/09/28 06:34:56;;;;;;;8.40;6.37;;;9.10;99.90;;;;;;5056619;28;20424;-74
2022/09/28 06:37:24;;;;;;;7.03;5.80;;;9.10;99.90;;;;;;5056211;28;20524;-74
2022/09/28 06:39:53;;;;;;;8.07;5.67;;;9.20;99.90;;;;;;5056196;28;20609;-74
2022/09/28 06:42:20;;;;;;;7.77;6.20;;;9.30;99.90;;;;;;5056105;28;20456;-74
2022/09/28 06:44:47;;;;;;;6.67;5.70;;;9.30;99.90;;;;;;5056486;28;20456;-74
2022/09/28 06:47:15;;;;;;;76.27;12.73;;;9.30;99.90;;;;;;5055635;28;20494;-74
2022/09/28 06:49:41;;;;;;;12.63;7.63;;;9.40;99.90;;;;;;5056803;28;20498;-74
2022/09/28 06:52:10;;;;;;;8.43;7.20;;;9.40;99.90;;;;;;5056402;28;20521;-75
2022/09/28 06:54:37;;;;;;;9.97;6.90;;;9.40;99.90;;;;;;5056187;28;20427;-74
2022/09/28 06:57:05;;;;;;;14.93;7.77;;;9.40;99.90;;;;;;5056185;28;20432;-74
2022/09/28 06:59:32;;;;;;;8.20;6.57;;;9.40;99.90;;;;;;5055925;28;20577;-75
2022/09/28 07:01:59;;;;;;;8.83;7.53;;;9.40;99.90;;;;;;5056163;28;20450;-74
2022/09/28 07:04:25;;;;;;;12.30;7.00;;;9.40;99.90;;;;;;5056024;28;20446;-74
2022/09/28 07:06:52;;;;;;;8.45;6.93;;;9.70;99.90;;;;;;5083843;22;20449;-74
2022/09/28 07:09:19;;;;;;;26.23;8.10;;;9.50;99.90;;;;;;5075642;28;20666;-76
2022/09/28 07:11:46;;;;;;;9.57;6.77;;;9.50;99.90;;;;;;5075642;28;20780;-76
2022/09/28 07:14:14;;;;;;;11.10;6.57;;;9.60;99.90;;;;;;5075759;28;20518;-76
2022/09/28 07:16:41;;;;;;;19.20;12.50;;;9.70;99.90;;;;;;5075395;28;20506;-77
2022/09/28 07:19:08;;;;;;;10.03;8.30;;;9.70;99.90;;;;;;5075384;28;20481;-76
2022/09/28 07:21:35;;;;;;;9.50;8.17;;;9.70;99.90;;;;;;5075672;28;20814;-76
2022/09/28 07:24:02;;;;;;;11.33;7.90;;;9.70;99.90;;;;;;5074824;28;20822;-75
2022/09/28 07:26:29;;;;;;;8.30;7.00;;;9.50;99.90;;;;;;5075584;28;20488;-77
2022/09/28 07:28:56;;;;;;;12.20;7.17;;;9.60;99.90;;;;;;5075813;28;20423;-75
2022/09/28 07:31:25;;;;;;;8.83;7.37;;;9.80;99.90;;;;;;5075700;28;20420;-75
2022/09/28 07:33:52;;;;;;;9.73;7.40;;;9.80;99.90;;;;;;5075805;28;20504;-74
2022/09/28 07:36:19;;;;;;;10.20;7.20;;;9.80;99.90;;;;;;5075933;28;20453;-76
2022/09/28 07:38:46;;;;;;;10.07;7.90;;;9.90;99.90;;;;;;5076178;28;20514;-77
2022/09/28 07:41:13;;;;;;;16.80;8.60;;;9.90;99.90;;;;;;5075884;28;20485;-74
2022/09/28 07:43:40;;;;;;;28.00;9.63;;;10.00;99.90;;;;;;5075247;28;20967;-75
2022/09/28 07:46:10;;;;;;;15.83;8.40;;;10.10;99.90;;;;;;5075320;28;20475;-75
2022/09/28 07:48:40;;;;;;;19.37;12.40;;;10.20;99.90;;;;;;5075540;28;20432;-73
2022/09/28 07:51:07;;;;;;;9.37;8.00;;;10.30;99.90;;;;;;5074932;28;20935;-76
2022/09/28 07:53:34;;;;;;;10.03;7.10;;;10.30;99.90;;;;;;5075446;28;20843;-76
2022/09/28 07:56:05;;;;;;;8.90;7.50;;;10.40;99.90;;;;;;5074959;28;20909;-75
2022/09/28 07:58:32;;;;;;;10.73;6.80;;;10.40;99.90;;;;;;5075266;28;20476;-74
2022/09/28 08:01:02;;;;;;;9.10;6.50;;;10.50;99.90;;;;;;5074620;28;21014;-75
2022/09/28 08:03:29;;;;;;;9.00;6.70;;;10.60;99.90;;;;;;5074716;28;20449;-76
2022/09/28 08:05:59;;;;;;;6.80;5.97;;;10.40;99.90;;;;;;5074484;28;20431;-74
2022/09/28 08:08:25;;;;;;;7.43;6.37;;;10.50;99.90;;;;;;5081176;28;20509;-74
2022/09/28 08:10:52;;;;;;;11.50;7.88;;;10.60;99.90;;;;;;5074320;28;20524;-75
2022/09/28 08:13:20;;;;;;;11.83;6.80;;;10.70;99.90;;;;;;5074371;28;20198;-76
2022/09/28 08:15:50;;;;;;;11.00;7.60;;;10.70;99.90;;;;;;5074342;28;20430;-74
2022/09/28 08:18:17;;;;;;;8.80;7.90;;;10.80;99.90;;;;;;5073840;28;20469;-75
2022/09/28 08:23:29;;;;;;;9.40;7.27;;;10.70;99.90;;;;;;5074617;28;20417;-75
2022/09/28 08:25:57;;;;;;;15.50;13.00;;;10.80;99.90;;;;;;5073942;28;20861;-75
2022/09/28 08:28:24;;;;;;;9.67;7.93;;;10.70;99.90;;;;;;5073951;28;20787;-75
2022/09/28 08:30:51;;;;;;;11.47;7.27;;;10.70;99.90;;;;;;5073950;28;20439;-75
2022/09/28 08:33:20;;;;;;;7.90;6.93;;;10.90;99.90;;;;;;5074065;28;20426;-74
2022/09/28 08:35:47;;;;;;;7.67;6.87;;;10.80;99.90;;;;;;5073638;28;20451;-75
2022/09/28 08:38:14;;;;;;;11.10;8.00;;;10.80;99.90;;;;;;5074043;28;20493;-75
2022/09/28 08:40:53;;;;;;;8.80;6.47;;;10.90;99.90;;;;;;5073344;28;20480;-75
2022/09/28 08:43:34;;;;;;;11.50;6.70;;;11.00;99.90;;;;;;5073783;28;20407;-75
2022/09/28 08:46:01;;;;;;;7.10;6.33;;;11.00;99.90;;;;;;5073788;28;20408;-75
2022/09/28 08:48:47;;;;;;;9.13;7.70;;;11.10;99.90;;;;;;5074328;28;20503;-75
2022/09/28 08:51:18;;;;;;;6.87;6.17;;;11.10;99.90;;;;;;5075740;28;20456;-75
2022/09/28 08:53:51;;;;;;;9.57;6.70;;;11.10;99.90;;;;;;5074385;28;20577;-76
2022/09/28 08:56:29;;;;;;;7.03;6.40;;;11.30;99.90;;;;;;5073299;28;20404;-75
2022/09/28 08:59:00;;;;;;;12.23;8.03;;;11.30;99.90;;;;;;5073566;28;20432;-75
2022/09/28 09:01:32;;;;;;;8.17;6.10;;;11.30;99.90;;;;;;5073605;28;20934;-76
2022/09/28 09:03:59;;;;;;;8.07;7.27;;;11.40;99.90;;;;;;5073767;28;20457;-75
2022/09/28 09:06:33;;;;;;;6.50;5.90;;;11.30;99.90;;;;;;5073386;28;20449;-75
2022/09/28 09:09:09;;;;;;;7.50;5.90;;;11.40;99.90;;;;;;5073281;28;20433;-76
2022/09/28 09:11:56;;;;;;;8.33;5.23;;;11.30;99.90;;;;;;5073363;28;20459;-74
2022/09/28 09:14:51;;;;;;;5.30;4.80;;;11.30;99.90;;;;;;5073275;28;20432;-75
2022/09/28 09:17:26;;;;;;;5.30;4.80;;;11.30;99.90;;;;;;5073348;28;20466;-75
2022/09/28 09:19:54;;;;;;;8.63;6.23;;;11.50;99.90;;;;;;5073823;28;20688;-76
2022/09/28 09:22:38;;;;;;;6.33;4.70;;;11.50;99.90;;;;;;5073524;28;20934;-76
2022/09/28 09:25:18;;;;;;;5.33;4.47;;;11.70;99.90;;;;;;5073964;28;20399;-76
2022/09/28 09:28:10;;;;;;;6.00;5.40;;;11.90;99.90;;;;;;5073485;28;20555;-75
2022/09/28 09:30:46;;;;;;;7.30;5.30;;;11.80;99.90;;;;;;5073156;28;20457;-75
2022/09/28 09:33:38;;;;;;;5.03;4.47;;;11.70;99.90;;;;;;5073149;28;20802;-76
2022/09/28 09:36:21;;;;;;;7.40;4.90;;;11.80;99.90;;;;;;5072795;28;20478;-75
2022/09/28 09:38:59;;;;;;;5.13;4.00;;;11.80;99.90;;;;;;5073146;28;20475;-76
2022/09/28 09:41:37;;;;;;;4.00;3.70;;;11.80;99.90;;;;;;5073117;28;20510;-76
2022/09/28 09:44:37;;;;;;;4.33;3.93;;;12.00;99.90;;;;;;5079947;28;20408;-75
2022/09/28 09:47:09;;;;;;;4.00;3.60;;;12.10;99.90;;;;;;5079415;28;20443;-74
2022/09/28 09:49:40;;;;;;;3.00;2.80;;;12.30;99.90;;;;;;5087911;28;20421;-75
2022/09/28 09:52:13;;;;;;;4.33;3.80;;;12.50;99.90;;;;;;5078526;28;20190;-76
2022/09/28 09:54:44;;;;;;;3.23;3.00;;;12.50;1.00;;;;;;5077395;28;20461;-76
2022/09/28 09:57:15;;;;;;;2.50;2.30;;;12.50;33.20;;;;;;5076724;28;20467;-76
2022/09/28 09:59:45;;;;;;;2.80;2.50;;;12.60;99.90;;;;;;5076873;28;20462;-75
2022/09/28 10:02:20;;;;;;;8.80;3.33;;;12.70;1.00;;;;;;5076532;28;20456;-75
2022/09/28 10:04:50;;;;;;;4.00;2.30;;;12.60;99.90;;;;;;5076577;28;20851;-76
2022/09/28 10:07:23;;;;;;;6.17;3.70;;;12.50;1.00;;;;;;5076232;28;20244;-76
2022/09/28 10:09:54;;;;;;;3.53;2.47;;;12.50;1.00;;;;;;5076716;28;20399;-76
2022/09/28 10:12:22;;;;;;;3.10;2.80;;;12.80;1.00;;;;;;5076822;28;20486;-76
2022/09/28 10:14:51;;;;;;;5.83;2.27;;;12.80;1.00;;;;;;5076669;28;20453;-76
2022/09/28 10:17:25;;;;;;;5.70;4.30;;;12.80;1.00;;;;;;5076664;28;20475;-76
2022/09/28 10:19:54;;;;;;;3.87;3.47;;;12.90;99.90;;;;;;5076854;28;20886;-76
2022/09/28 10:22:24;;;;;;;9.93;4.67;;;12.70;99.90;;;;;;5076654;28;20456;-76
2022/09/28 10:24:55;;;;;;;4.30;3.70;;;12.60;99.90;;;;;;5076832;28;20902;-77
2022/09/28 10:27:25;;;;;;;3.30;3.00;;;12.30;1.00;;;;;;5076377;28;20482;-75
2022/09/28 10:29:56;;;;;;;7.20;4.57;;;12.20;99.90;;;;;;5076619;28;20426;-76
2022/09/28 10:32:25;;;;;;;3.10;2.50;;;12.20;99.90;;;;;;5076253;28;20453;-76
2022/09/28 10:34:53;;;;;;;5.97;3.70;;;12.40;1.00;;;;;;5076518;28;20423;-75
2022/09/28 10:37:21;;;;;;;5.93;2.70;;;12.50;99.90;;;;;;5076562;28;20472;-76
2022/09/28 10:39:52;;;;;;;4.10;1.80;;;12.50;1.00;;;;;;5076252;28;20790;-75
2022/09/28 10:42:21;;;;;;;3.83;1.90;;;12.40;99.90;;;;;;5076131;28;20908;-75
2022/09/28 10:44:53;;;;;;;2.23;1.90;;;12.50;1.00;;;;;;5076163;28;20807;-76
2022/09/28 10:47:23;;;;;;;16.33;8.13;;;12.60;28.10;;;;;;5075939;28;20475;-76
2022/09/28 10:49:52;;;;;;;5.90;5.03;;;12.50;99.90;;;;;;5076553;28;20444;-76
2022/09/28 10:52:33;;;;;;;6.60;4.50;;;12.50;99.90;;;;;;5076099;28;20836;-76
2022/09/28 10:55:00;;;;;;;3.23;2.60;;;12.60;1.00;;;;;;5076231;28;20448;-76
2022/09/28 10:57:29;;;;;;;7.33;3.03;;;12.30;99.90;;;;;;5075968;28;20465;-76
2022/09/28 10:59:57;;;;;;;2.90;2.60;;;12.30;1.00;;;;;;5075409;28;20943;-76
2022/09/28 11:02:26;;;;;;;3.50;3.17;;;12.20;99.90;;;;;;5075895;28;20449;-76
2022/09/28 11:04:56;;;;;;;4.10;3.27;;;12.20;99.90;;;;;;5075786;28;20953;-76
2022/09/28 11:07:25;;;;;;;3.60;3.30;;;12.10;1.00;;;;;;5075571;28;20577;-76
2022/09/28 11:09:55;;;;;;;5.20;4.70;;;12.10;1.00;;;;;;5075486;28;20475;-76
2022/09/28 11:12:23;;;;;;;7.37;5.40;;;12.00;1.00;;;;;;5075699;28;20431;-75
2022/09/28 11:14:58;;;;;;;11.33;6.10;;;12.00;1.00;;;;;;5075731;28;20445;-75
2022/09/28 11:17:28;;;;;;;6.93;4.57;;;12.00;1.00;;;;;;5075628;28;20869;-75
2022/09/28 11:19:56;;;;;;;7.63;5.87;;;11.90;1.00;;;;;;5075356;28;20436;-76
2022/09/28 11:22:27;;;;;;;20.37;4.50;;;11.80;1.00;;;;;;5075537;28;20419;-75
2022/09/28 11:25:14;;;;;;;6.13;2.90;;;11.80;1.00;;;;;;5075513;28;20400;-76
2022/09/28 11:27:40;;;;;;;3.00;2.80;;;11.80;1.00;;;;;;5075471;28;20862;-76
2022/09/28 11:30:22;;;;;;;5.80;3.80;;;11.80;1.00;;;;;;5074889;28;20447;-76
2022/09/28 11:32:50;;;;;;;4.43;3.90;;;12.00;1.00;;;;;;5075002;28;20404;-75
2022/09/28 11:35:19;;;;;;;4.83;4.20;;;12.10;1.00;;;;;;5076107;28;20419;-76
2022/09/28 11:38:08;;;;;;;5.70;5.20;;;12.30;1.00;;;;;;5074637;28;20447;-76
2022/09/28 11:40:47;;;;;;;5.63;4.07;;;12.10;1.00;;;;;;5075413;28;20465;-76
2022/09/28 11:43:26;;;;;;;3.73;3.53;;;12.20;1.00;;;;;;5076792;28;21028;-75
2022/09/28 11:46:01;;;;;;;6.57;4.97;;;12.20;1.00;;;;;;5074682;28;20430;-76
2022/09/28 11:48:36;;;;;;;7.47;5.37;;;12.10;1.00;;;;;;5074756;28;20958;-76
2022/09/28 11:51:10;;;;;;;4.30;4.00;;;12.00;1.00;;;;;;5074764;28;20430;-76
2022/09/28 11:53:41;;;;;;;5.00;3.90;;;11.90;1.00;;;;;;5075276;28;20457;-75
2022/09/28 11:56:18;;;;;;;6.70;5.00;;;11.90;1.00;;;;;;5074465;28;20886;-76
2022/09/28 11:58:48;;;;;;;3.90;3.60;;;11.90;1.00;;;;;;5074761;28;20494;-75
2022/09/28 12:01:24;;;;;;;3.87;2.50;;;11.90;1.00;;;;;;5074399;28;20443;-75
2022/09/28 12:03:55;;;;;;;3.17;2.97;;;11.90;1.00;;;;;;5076845;28;20432;-74
2022/09/28 12:06:25;;;;;;;6.93;3.37;;;12.10;1.00;;;;;;5076926;28;20891;-75
2022/09/28 12:08:56;;;;;;;3.17;2.97;;;11.80;1.00;;;;;;5075308;28;20407;-76
2022/09/28 12:11:31;;;;;;;5.30;2.90;;;11.90;99.90;;;;;;5074363;28;20400;-75
2022/09/28 12:14:02;;;;;;;5.10;4.50;;;12.00;1.00;;;;;;5074970;28;20429;-74
2022/09/28 12:16:36;;;;;;;4.70;3.93;;;12.10;99.90;;;;;;5074604;28;20442;-75
2022/09/28 12:19:06;;;;;;;3.77;2.93;;;12.00;5.10;;;;;;5074036;28;20433;-76
2022/09/28 12:21:38;;;;;;;4.10;2.27;;;11.90;99.90;;;;;;5074074;28;20447;-75
2022/09/28 12:24:12;;;;;;;2.97;2.67;;;11.80;99.90;;;;;;5074094;28;20836;-76
2022/09/28 12:26:47;;;;;;;4.70;2.67;;;11.80;99.90;;;;;;5074107;28;20494;-75
2022/09/28 12:29:18;;;;;;;2.70;1.90;;;11.80;99.90;;;;;;5074032;28;20432;-75
2022/09/28 12:31:59;;;;;;;4.03;2.00;;;11.80;99.90;;;;;;5074071;28;20900;-75
2022/09/28 12:34:26;;;;;;;1.70;1.60;;;11.80;1.00;;;;;;5074581;28;20437;-75
2022/09/28 12:37:11;;;;;;;3.10;2.00;;;11.80;99.90;;;;;;5073958;28;20425;-75
2022/09/28 12:39:50;;;;;;;8.37;6.00;;;11.90;1.00;;;;;;5074377;28;20195;-76
2022/09/28 12:42:43;;;;;;;2.73;2.40;;;12.10;99.90;;;;;;5073595;28;20968;-75
2022/09/28 12:45:23;;;;;;;4.80;2.47;;;12.10;1.00;;;;;;5074160;28;20418;-74
2022/09/28 12:48:22;;;;;;;4.17;3.80;;;12.10;1.00;;;;;;5074756;28;20822;-77
2022/09/28 12:51:03;;;;;;;1.90;1.80;;;12.10;1.00;;;;;;5074568;28;20411;-76
2022/09/28 12:53:46;;;;;;;5.10;4.10;;;12.10;99.90;;;;;;5074428;28;20436;-76
2022/09/28 12:56:22;;;;;;;2.13;1.97;;;12.10;88.70;;;;;;5074149;28;20404;-76
2022/09/28 12:59:00;;;;;;;3.00;2.80;;;12.10;1.00;;;;;;5073623;28;20442;-75
2022/09/28 13:01:43;;;;;;;2.97;2.10;;;12.20;75.50;;;;;;5073377;28;20492;-75
2022/09/28 13:04:29;;;;;;;4.20;2.13;;;12.10;99.90;;;;;;5073520;28;20403;-75
2022/09/28 13:07:04;;;;;;;4.67;3.30;;;12.20;84.20;;;;;;5093865;22;20478;-74
2022/09/28 13:09:41;;;;;;;3.73;3.10;;;12.00;99.90;;;;;;5053269;28;20407;-74
2022/09/28 13:12:20;;;;;;;7.63;2.90;;;11.90;1.00;;;;;;5052772;28;20433;-74
2022/09/28 13:15:26;;;;;;;2.10;1.77;;;11.90;91.30;;;;;;5054458;28;20843;-73